Warsaw, IN

3:50 PM EST on December 27, 2014 (GMT -0500)
Warsaw Municipal | Change Station
CLOSE
Current Station
Airport
Location: Warsaw,
Elevation: 850 ft
Nearby Weather Stations

Elev 850 ft 41.27 °N, 85.84 °W | Updated 15 minutes ago

Overcast
Overcast
46 °F
Feels Like 41 °F
N
12
Wind Variable Wind from WSW
Gusts 18 mph

Today
High -- | Low -- °F
--% Chance of Precip.
Yesterday
High -- | Low -- °F
Precip. -- in
8:08 AM 5:21 PM
Waxing Crescent, 40% visible
Pressure 29.99 in
Visibility 4.0 miles
Clouds Overcast 600 ft
Windchill 41 °F
Dew Point 45 °F
Humidity 93%
Rainfall 0.04 in
Snow Depth Not available.
UV 0 out of 12
Pollen .10 out of 12
Air Quality Not available.
Flu Activity Not available.
METAR KASW 272035Z AUTO 24010G16KT 4SM BR OVC006 08/07 A2999 RMK AO2

More Conditions Fewer Conditions

Pressure 29.99 in
Visibility 4.0 miles
Clouds Overcast 600 ft
Windchill 41 °F
Dew Point 45 °F
Humidity 93%
Rainfall 0.04 in
Snow Depth Not available.
UV 0 out of 12
Pollen .10 out of 12
Air Quality Not available.
Flu Activity Not available.
METAR KASW 272035Z AUTO 24010G16KT 4SM BR OVC006 08/07 A2999 RMK AO2

More Conditions Fewer Conditions

10-Day Weather Forecast

Almanac

Astronomy

Dec. 27, 2014 Rise Set
Actual Time
Civil Twilight
Nautical Twilight
Astronomical Twilight
Moon
Length of Visible Light
Length of Day
Tomorrow will be .
, % of the Moon is Illuminated

Today's Extremes

State Highs State Lows

Community

WunderPhotos

Upload Photos

1,781,053 photos uploaded!

WunderBlogs® & News

Nearby

Air Quality

  Air Quality AQ Index Pollutant
Not available.

Snow Depth

Station Depth Elevation

Earthquake Activity

City Distance Mag. Time & Date
Minimum magnitude displayed is 2.5.

Coastal Water Temperatures

Place Temperature

Nearby Weather Stations